Time;durP1;ratioP1;P1;durP2;ratioP2;P2;SDS_P1;SDS_P2;PMS_P1;PMS_P2;Temp;Humidity;BMP_temperature;BMP_pressure;BME280_temperature;BME280_humidity;BME280_pressure;Samples;Min_cycle;Max_cycle;Signal;HPM_P1;HPM_P2
2023/07/12 00:00:20;;;;;;;7.13;6.82;;;24.30;99.90;;;;;;4992019;28;20230;-61
2023/07/12 00:02:47;;;;;;;7.05;6.85;;;24.30;99.90;;;;;;4992471;28;20194;-61
2023/07/12 00:05:15;;;;;;;8.25;7.95;;;24.30;99.90;;;;;;4990512;28;20206;-61
2023/07/12 00:07:45;;;;;;;7.03;6.82;;;24.30;99.90;;;;;;4992836;28;20212;-61
2023/07/12 00:10:17;;;;;;;7.65;7.43;;;24.30;99.90;;;;;;4992029;28;20241;-61
2023/07/12 00:12:44;;;;;;;8.30;8.00;;;24.30;99.90;;;;;;4992377;28;20195;-61
2023/07/12 00:15:12;;;;;;;6.88;6.68;;;24.30;99.90;;;;;;4999147;28;20209;-60
2023/07/12 00:17:39;;;;;;;8.05;7.75;;;24.20;99.90;;;;;;5012097;28;20213;-62
2023/07/12 00:20:18;;;;;;;7.85;7.55;;;24.20;99.90;;;;;;5012565;28;20225;-61
2023/07/12 00:22:45;;;;;;;7.30;7.10;;;24.20;99.90;;;;;;5015395;28;20205;-61
2023/07/12 00:25:12;;;;;;;7.35;7.07;;;24.20;99.90;;;;;;4998121;28;20281;-60
2023/07/12 00:27:40;;;;;;;9.85;9.48;;;24.30;99.90;;;;;;4992530;28;20213;-59
2023/07/12 00:30:15;;;;;;;8.32;8.02;;;24.20;99.90;;;;;;4990828;28;20252;-60
2023/07/12 00:32:42;;;;;;;16.83;16.08;;;24.20;99.90;;;;;;4991055;28;20211;-60
2023/07/12 00:35:15;;;;;;;6.97;6.68;;;24.20;99.90;;;;;;4991082;28;20210;-62
2023/07/12 00:37:41;;;;;;;8.18;7.88;;;24.20;99.90;;;;;;4991235;28;20232;-61
2023/07/12 00:40:38;;;;;;;7.75;7.45;;;24.30;99.90;;;;;;4990003;28;20210;-61
2023/07/12 00:43:16;;;;;;;6.90;6.70;;;24.40;99.90;;;;;;4991078;28;20236;-60
2023/07/12 00:45:46;;;;;;;7.10;6.90;;;24.40;99.90;;;;;;4991519;28;20472;-61
2023/07/12 00:48:14;;;;;;;7.18;6.97;;;24.30;99.90;;;;;;4990114;28;20202;-62
2023/07/12 00:50:41;;;;;;;7.20;6.90;;;24.20;99.90;;;;;;4994950;28;20206;-61
2023/07/12 00:53:14;;;;;;;7.20;7.00;;;24.20;99.90;;;;;;4990549;28;20221;-61
2023/07/12 00:56:03;;;;;;;7.22;7.03;;;24.20;99.90;;;;;;4990274;28;20627;-60
2023/07/12 00:58:38;;;;;;;7.25;7.05;;;24.10;99.90;;;;;;4989444;28;20714;-61
2023/07/12 01:01:07;;;;;;;7.57;7.32;;;24.10;99.90;;;;;;4991051;28;20229;-61
2023/07/12 01:03:39;;;;;;;7.53;7.22;;;24.00;99.90;;;;;;4990875;28;20222;-60
2023/07/12 01:06:09;;;;;;;9.30;9.00;;;24.00;99.90;;;;;;4991488;28;20214;-60
2023/07/12 01:08:41;;;;;;;7.90;7.60;;;24.00;99.90;;;;;;4991039;28;20206;-62
2023/07/12 01:11:09;;;;;;;8.30;8.00;;;24.00;99.90;;;;;;4990847;28;20206;-60
2023/07/12 01:13:41;;;;;;;8.23;7.93;;;23.90;99.90;;;;;;4988524;28;20251;-61
2023/07/12 01:16:08;;;;;;;8.32;8.02;;;23.90;99.90;;;;;;4990566;28;20584;-60
2023/07/12 01:18:35;;;;;;;21.77;20.88;;;24.00;99.90;;;;;;4990632;28;20206;-61
2023/07/12 01:21:10;;;;;;;9.68;9.35;;;23.90;99.90;;;;;;4990044;28;20225;-61
2023/07/12 01:23:39;;;;;;;9.60;9.30;;;23.90;99.90;;;;;;4992821;28;20279;-60
2023/07/12 01:26:27;;;;;;;7.78;7.47;;;23.90;99.90;;;;;;5000526;28;20238;-60
2023/07/12 01:28:56;;;;;;;10.48;10.07;;;24.00;99.90;;;;;;5000668;28;20649;-60
2023/07/12 01:31:25;;;;;;;8.55;8.25;;;23.90;99.90;;;;;;5000099;28;20301;-62
2023/07/12 01:33:52;;;;;;;7.85;7.55;;;23.90;99.90;;;;;;4992433;28;20240;-61
2023/07/12 01:36:21;;;;;;;9.85;9.55;;;23.90;99.90;;;;;;4992224;28;20206;-61
2023/07/12 01:38:49;;;;;;;9.85;9.45;;;23.90;99.90;;;;;;4991415;28;20206;-61
2023/07/12 01:41:16;;;;;;;8.82;8.43;;;23.80;99.90;;;;;;4990312;28;20228;-61
2023/07/12 01:43:43;;;;;;;8.15;7.85;;;23.80;99.90;;;;;;4990251;28;20260;-61
2023/07/12 01:46:10;;;;;;;8.23;7.93;;;23.90;99.90;;;;;;4991365;28;20206;-61
2023/07/12 01:48:37;;;;;;;7.28;6.97;;;23.90;99.90;;;;;;4990017;28;20672;-61
2023/07/12 01:51:05;;;;;;;7.80;7.50;;;23.80;99.90;;;;;;4988087;28;20205;-61
2023/07/12 01:53:35;;;;;;;6.93;6.72;;;23.90;99.90;;;;;;4991358;28;20234;-61
2023/07/12 01:56:03;;;;;;;8.45;8.05;;;23.80;99.90;;;;;;4991682;28;20210;-60
2023/07/12 01:58:30;;;;;;;9.10;8.80;;;23.80;99.90;;;;;;4989912;28;20206;-61
2023/07/12 02:00:58;;;;;;;7.10;6.90;;;23.80;99.90;;;;;;4989283;28;20237;-61
2023/07/12 02:03:26;;;;;;;6.80;6.60;;;23.80;99.90;;;;;;4989879;28;20229;-61
2023/07/12 02:05:53;;;;;;;7.43;7.15;;;23.80;99.90;;;;;;4989678;28;20224;-60
2023/07/12 02:08:21;;;;;;;9.85;9.55;;;23.70;99.90;;;;;;4990268;28;20213;-61
2023/07/12 02:10:49;;;;;;;7.20;7.00;;;23.70;99.90;;;;;;4992559;28;20201;-60
2023/07/12 02:13:17;;;;;;;12.70;12.23;;;23.70;99.90;;;;;;4990413;28;20230;-61
2023/07/12 02:15:44;;;;;;;8.75;8.45;;;23.70;99.90;;;;;;4988379;28;20307;-62
2023/07/12 02:18:12;;;;;;;8.55;8.25;;;23.70;99.90;;;;;;4991009;28;20291;-60
2023/07/12 02:20:39;;;;;;;7.72;7.43;;;23.70;99.90;;;;;;4989918;28;20206;-61
2023/07/12 02:23:07;;;;;;;7.05;6.85;;;23.70;99.90;;;;;;4990293;28;20233;-61
2023/07/12 02:25:34;;;;;;;8.30;8.00;;;23.70;99.90;;;;;;4990768;28;20210;-61
2023/07/12 02:28:02;;;;;;;8.20;7.90;;;23.70;99.90;;;;;;4994561;28;20206;-62
2023/07/12 02:30:30;;;;;;;6.88;6.68;;;23.70;99.90;;;;;;4994487;28;20209;-62
2023/07/12 02:32:57;;;;;;;8.18;7.88;;;23.70;99.90;;;;;;4995005;28;20440;-60
2023/07/12 02:35:27;;;;;;;9.35;9.02;;;23.60;99.90;;;;;;4994242;28;20400;-60
2023/07/12 02:37:55;;;;;;;8.35;7.95;;;23.60;99.90;;;;;;4994513;28;20205;-62
2023/07/12 02:40:23;;;;;;;7.30;7.07;;;23.60;99.90;;;;;;4992832;28;20613;-61
2023/07/12 02:42:50;;;;;;;8.02;7.72;;;23.60;99.90;;;;;;4994536;28;20225;-60
2023/07/12 02:45:19;;;;;;;8.18;7.88;;;23.60;99.90;;;;;;4993266;28;20216;-60
2023/07/12 02:47:46;;;;;;;8.35;8.05;;;23.60;99.90;;;;;;4992879;28;20240;-61
2023/07/12 02:50:13;;;;;;;8.95;8.63;;;23.60;99.90;;;;;;4992072;28;20241;-63
2023/07/12 02:52:40;;;;;;;8.30;8.00;;;23.60;99.90;;;;;;4992822;28;20206;-62
2023/07/12 02:55:07;;;;;;;7.90;7.60;;;23.60;99.90;;;;;;4992598;28;20216;-62
2023/07/12 02:57:34;;;;;;;7.43;7.13;;;23.60;99.90;;;;;;4993065;28;20209;-62
2023/07/12 03:00:01;;;;;;;7.45;7.15;;;23.60;99.90;;;;;;4991688;28;20947;-62
2023/07/12 03:02:30;;;;;;;7.72;7.43;;;23.60;99.90;;;;;;4991784;28;20699;-62
2023/07/12 03:04:57;;;;;;;7.93;7.63;;;23.60;99.90;;;;;;5005620;28;20226;-60
2023/07/12 03:07:23;;;;;;;8.30;8.00;;;23.60;99.90;;;;;;5006518;28;20633;-63
2023/07/12 03:09:53;;;;;;;7.57;7.28;;;23.60;99.90;;;;;;5000723;28;20230;-60
2023/07/12 03:12:20;;;;;;;7.50;7.13;;;23.60;99.90;;;;;;4994624;28;20640;-62
2023/07/12 03:14:47;;;;;;;8.25;7.95;;;23.50;99.90;;;;;;4994238;28;20246;-62
2023/07/12 03:17:14;;;;;;;8.00;7.70;;;23.60;99.90;;;;;;4993221;28;20601;-62
2023/07/12 03:19:42;;;;;;;7.80;7.50;;;23.60;99.90;;;;;;4992131;28;20709;-62
2023/07/12 03:22:09;;;;;;;8.10;7.80;;;23.60;99.90;;;;;;4992694;28;20602;-61
2023/07/12 03:24:35;;;;;;;7.82;7.53;;;23.60;99.90;;;;;;4993524;28;20248;-61
2023/07/12 03:27:02;;;;;;;8.18;7.88;;;23.60;99.90;;;;;;4993268;28;20214;-61
2023/07/12 03:29:29;;;;;;;9.40;8.93;;;23.50;99.90;;;;;;4991493;28;20672;-61
2023/07/12 03:31:56;;;;;;;8.02;7.72;;;23.60;99.90;;;;;;4992711;28;20198;-61
2023/07/12 03:34:23;;;;;;;9.25;8.95;;;23.60;99.90;;;;;;4991288;28;20241;-61
2023/07/12 03:36:51;;;;;;;9.38;9.05;;;23.50;99.90;;;;;;4992180;28;20210;-61
2023/07/12 03:39:18;;;;;;;9.18;8.85;;;23.50;99.90;;;;;;4990764;28;20213;-61
2023/07/12 03:41:44;;;;;;;7.70;7.40;;;23.60;99.90;;;;;;4991804;28;20226;-63
2023/07/12 03:44:11;;;;;;;8.07;7.78;;;23.60;99.90;;;;;;4991994;28;20614;-60
2023/07/12 03:46:38;;;;;;;9.50;9.10;;;23.60;99.90;;;;;;4992787;28;20206;-62
2023/07/12 03:49:05;;;;;;;10.68;10.25;;;23.50;99.90;;;;;;4992474;28;20279;-61
2023/07/12 03:51:32;;;;;;;9.68;9.35;;;23.40;99.90;;;;;;4993292;28;20205;-62
2023/07/12 03:54:00;;;;;;;10.13;9.75;;;23.40;99.90;;;;;;4991128;28;20226;-62
2023/07/12 03:56:27;;;;;;;10.23;9.88;;;23.40;99.90;;;;;;4992130;28;20205;-64
2023/07/12 03:58:54;;;;;;;9.35;9.05;;;23.40;99.90;;;;;;4994079;28;20206;-61
2023/07/12 04:01:21;;;;;;;9.77;9.43;;;23.40;99.90;;;;;;4991118;28;20238;-62
2023/07/12 04:03:47;;;;;;;9.23;8.93;;;23.50;99.90;;;;;;4991619;28;20228;-60
2023/07/12 04:06:14;;;;;;;8.23;7.93;;;23.50;99.90;;;;;;4991832;28;20653;-61
2023/07/12 04:08:41;;;;;;;7.78;7.47;;;23.50;99.90;;;;;;4991907;28;20206;-61
2023/07/12 04:11:23;;;;;;;7.85;7.55;;;23.60;99.90;;;;;;4991163;28;20205;-60
2023/07/12 04:13:49;;;;;;;10.65;10.27;;;23.60;99.90;;;;;;4992142;28;20316;-60
2023/07/12 04:16:16;;;;;;;9.48;9.07;;;23.60;99.90;;;;;;4991468;28;20202;-61
2023/07/12 04:18:43;;;;;;;11.00;10.60;;;23.50;99.90;;;;;;4991600;28;20224;-61
2023/07/12 04:21:10;;;;;;;10.68;10.27;;;23.50;99.90;;;;;;4989087;28;20202;-61
2023/07/12 04:23:37;;;;;;;7.50;7.20;;;23.50;99.90;;;;;;4992593;28;20222;-57
2023/07/12 04:26:05;;;;;;;7.82;7.53;;;23.60;99.90;;;;;;4993052;28;20210;-57
2023/07/12 04:28:38;;;;;;;8.00;7.65;;;23.80;99.90;;;;;;4993036;28;20229;-56
2023/07/12 04:31:06;;;;;;;7.30;7.00;;;23.90;99.90;;;;;;4991847;28;20651;-57
2023/07/12 04:33:33;;;;;;;6.95;6.75;;;24.00;99.90;;;;;;4992042;28;20245;-56
2023/07/12 04:36:05;;;;;;;8.38;8.02;;;24.10;99.90;;;;;;4981112;28;20724;-57
2023/07/12 04:38:32;;;;;;;6.78;6.57;;;24.10;99.90;;;;;;4973360;28;20187;-57
2023/07/12 04:40:59;;;;;;;7.57;7.28;;;24.10;99.90;;;;;;4978055;28;20210;-56
2023/07/12 04:43:26;;;;;;;7.22;6.93;;;24.10;99.90;;;;;;4991146;28;20233;-56
2023/07/12 04:45:55;;;;;;;7.82;7.53;;;24.20;99.90;;;;;;4991289;28;20739;-56
2023/07/12 04:48:21;;;;;;;7.78;7.47;;;24.20;99.90;;;;;;4991932;28;20594;-56
2023/07/12 04:50:51;;;;;;;8.45;8.15;;;24.20;99.90;;;;;;4990498;28;20217;-56
2023/07/12 04:53:18;;;;;;;7.40;7.10;;;24.20;99.90;;;;;;4990954;28;20218;-56
2023/07/12 04:55:45;;;;;;;7.22;6.93;;;24.20;99.90;;;;;;4993671;28;20210;-56
2023/07/12 04:58:12;;;;;;;7.15;6.85;;;24.20;99.90;;;;;;4994141;28;20668;-56
2023/07/12 05:00:39;;;;;;;7.25;6.95;;;24.20;99.90;;;;;;4993497;28;20202;-56
2023/07/12 05:03:07;;;;;;;7.25;6.95;;;24.20;99.90;;;;;;4987398;28;20236;-57
2023/07/12 05:05:34;;;;;;;6.75;6.55;;;24.20;99.90;;;;;;4990506;28;20200;-57
2023/07/12 05:08:00;;;;;;;7.07;6.78;;;24.30;99.90;;;;;;4990318;28;20226;-58
2023/07/12 05:10:27;;;;;;;7.85;7.47;;;24.40;99.90;;;;;;4989338;28;20206;-57
2023/07/12 05:12:54;;;;;;;8.30;8.00;;;24.40;99.90;;;;;;4991351;28;20201;-56
2023/07/12 05:15:20;;;;;;;7.72;7.32;;;24.40;99.90;;;;;;4990802;28;20210;-57
2023/07/12 05:17:47;;;;;;;8.15;7.85;;;24.40;99.90;;;;;;5002310;28;20248;-57
2023/07/12 05:20:16;;;;;;;7.75;7.40;;;24.40;99.90;;;;;;4979233;28;20659;-57
2023/07/12 05:22:43;;;;;;;7.70;7.40;;;24.40;99.90;;;;;;4980754;28;20237;-56
2023/07/12 05:25:10;;;;;;;7.18;6.95;;;24.50;99.90;;;;;;4982256;28;20201;-56
2023/07/12 05:27:37;;;;;;;9.02;8.73;;;24.50;99.90;;;;;;4981475;28;20739;-56
2023/07/12 05:30:05;;;;;;;8.18;7.88;;;24.50;99.90;;;;;;4989278;28;20210;-56
2023/07/12 05:32:32;;;;;;;7.80;7.50;;;24.50;99.90;;;;;;4990254;28;20577;-56
2023/07/12 05:34:59;;;;;;;7.80;7.50;;;24.50;99.90;;;;;;4987651;28;20234;-56
2023/07/12 05:37:27;;;;;;;7.55;7.25;;;24.50;99.90;;;;;;4990785;28;20246;-56
2023/07/12 05:39:54;;;;;;;7.63;7.32;;;24.60;99.90;;;;;;4990362;28;20221;-56
2023/07/12 05:42:20;;;;;;;7.63;7.32;;;24.70;99.90;;;;;;5010156;28;20806;-56
2023/07/12 05:44:47;;;;;;;8.00;7.70;;;24.70;99.90;;;;;;4992380;28;20613;-56
2023/07/12 05:47:15;;;;;;;7.93;7.53;;;24.70;99.90;;;;;;4991123;28;20213;-57
2023/07/12 05:49:42;;;;;;;8.82;8.45;;;24.70;99.90;;;;;;4985997;28;20655;-56
2023/07/12 05:52:09;;;;;;;8.07;7.78;;;24.50;99.90;;;;;;4983191;28;20652;-55
2023/07/12 05:54:37;;;;;;;7.70;7.40;;;24.60;99.90;;;;;;4991579;28;20676;-56
2023/07/12 05:57:05;;;;;;;8.18;7.88;;;24.70;99.90;;;;;;4990797;28;20314;-57
2023/07/12 05:59:32;;;;;;;9.60;9.25;;;24.70;99.90;;;;;;4986773;28;20205;-63
2023/07/12 06:01:58;;;;;;;8.02;7.70;;;24.60;99.90;;;;;;4992088;28;20317;-62
2023/07/12 06:04:25;;;;;;;8.70;8.40;;;24.50;99.90;;;;;;4991889;28;20595;-62
2023/07/12 06:06:52;;;;;;;9.70;9.30;;;24.40;99.90;;;;;;4992632;28;20565;-61
2023/07/12 06:09:19;;;;;;;10.25;9.82;;;24.30;99.90;;;;;;4993154;28;20967;-62
2023/07/12 06:11:47;;;;;;;8.82;8.52;;;24.30;99.90;;;;;;4993657;28;20213;-61
2023/07/12 06:14:14;;;;;;;9.05;8.73;;;24.20;99.90;;;;;;4993707;28;20229;-61
2023/07/12 06:16:43;;;;;;;9.20;8.85;;;24.20;99.90;;;;;;5033417;22;20229;-67
2023/07/12 06:19:09;;;;;;;10.02;9.65;;;24.10;99.90;;;;;;5012394;28;20230;-66
2023/07/12 06:21:37;;;;;;;10.57;10.18;;;24.10;99.90;;;;;;5023021;28;20580;-67
2023/07/12 06:24:05;;;;;;;10.43;10.00;;;24.00;99.90;;;;;;5033489;28;20599;-69
2023/07/12 06:26:32;;;;;;;11.50;11.10;;;24.00;99.90;;;;;;5033479;28;20335;-68
2023/07/12 06:29:01;;;;;;;10.63;10.23;;;24.00;99.90;;;;;;5031655;28;20212;-68
2023/07/12 06:31:28;;;;;;;10.20;9.80;;;24.10;99.90;;;;;;5034265;28;20200;-67
2023/07/12 06:33:56;;;;;;;9.60;9.27;;;24.20;99.90;;;;;;5034317;28;20565;-68
2023/07/12 06:36:23;;;;;;;8.65;8.35;;;24.50;99.90;;;;;;5034544;28;20256;-66
2023/07/12 06:38:49;;;;;;;9.13;8.80;;;24.70;99.90;;;;;;5013083;28;20582;-66
2023/07/12 06:41:16;;;;;;;9.80;9.40;;;24.80;99.90;;;;;;5012808;28;20276;-67
2023/07/12 06:43:43;;;;;;;10.55;10.15;;;25.00;99.90;;;;;;5012804;28;20221;-66
2023/07/12 06:46:11;;;;;;;9.07;8.75;;;25.00;99.90;;;;;;5014232;28;20244;-66
2023/07/12 06:48:38;;;;;;;9.18;8.88;;;25.00;99.90;;;;;;5013716;28;20256;-68
2023/07/12 06:51:05;;;;;;;9.20;8.80;;;25.00;99.90;;;;;;5012283;28;20213;-67
2023/07/12 06:53:32;;;;;;;8.98;8.68;;;25.10;99.90;;;;;;5012541;28;20201;-67
2023/07/12 06:55:59;;;;;;;8.90;8.60;;;25.10;99.90;;;;;;5013106;28;20233;-68
2023/07/12 06:58:26;;;;;;;9.55;9.25;;;25.10;99.90;;;;;;5013201;28;20205;-67
2023/07/12 07:00:53;;;;;;;8.75;8.45;;;25.20;99.90;;;;;;5011762;28;20219;-69
2023/07/12 07:03:21;;;;;;;9.80;9.40;;;25.30;99.90;;;;;;5013002;28;20233;-67
2023/07/12 07:05:48;;;;;;;9.25;8.95;;;25.30;99.90;;;;;;5012811;28;20225;-68
2023/07/12 07:08:18;;;;;;;9.10;8.73;;;25.40;99.90;;;;;;5010851;28;20216;-66
2023/07/12 07:10:49;;;;;;;8.45;8.15;;;25.40;99.90;;;;;;5012821;28;20213;-66
2023/07/12 07:13:16;;;;;;;8.80;8.50;;;25.50;99.90;;;;;;5011903;28;20224;-65
2023/07/12 07:15:45;;;;;;;8.50;8.20;;;25.60;99.90;;;;;;5011799;28;20665;-66
2023/07/12 07:18:12;;;;;;;8.88;8.57;;;25.70;99.90;;;;;;5012800;28;20211;-65
2023/07/12 07:20:42;;;;;;;9.02;8.73;;;25.80;99.90;;;;;;5012044;28;20209;-66
2023/07/12 07:23:10;;;;;;;8.90;8.50;;;25.80;99.90;;;;;;5012737;28;20229;-67
2023/07/12 07:25:37;;;;;;;9.82;9.43;;;25.80;99.90;;;;;;5010983;28;20221;-66
2023/07/12 07:28:04;;;;;;;8.95;8.55;;;25.80;99.90;;;;;;5012667;28;20577;-67
2023/07/12 07:30:31;;;;;;;8.57;8.27;;;25.80;99.90;;;;;;5011738;28;20214;-66
2023/07/12 07:32:59;;;;;;;8.98;8.57;;;25.80;99.90;;;;;;5013415;28;20212;-67
2023/07/12 07:35:26;;;;;;;8.38;8.07;;;25.80;99.90;;;;;;5013667;28;20229;-69
2023/07/12 07:37:54;;;;;;;8.70;8.40;;;25.80;99.90;;;;;;5013348;28;20213;-64
2023/07/12 07:40:21;;;;;;;8.35;8.05;;;26.00;99.90;;;;;;5011908;28;20570;-66
2023/07/12 07:42:48;;;;;;;8.68;8.38;;;26.10;99.90;;;;;;5014219;28;20341;-66
2023/07/12 07:45:15;;;;;;;9.95;9.55;;;26.30;99.90;;;;;;5013378;28;20229;-67
2023/07/12 07:47:42;;;;;;;9.95;9.55;;;26.40;99.90;;;;;;5013239;28;20215;-66
2023/07/12 07:50:09;;;;;;;10.00;9.60;;;26.70;99.90;;;;;;5011263;28;20218;-66
2023/07/12 07:52:36;;;;;;;9.60;9.20;;;26.80;99.90;;;;;;5012580;28;20568;-66
2023/07/12 07:55:05;;;;;;;11.32;10.85;;;27.00;99.90;;;;;;5011445;28;20229;-66
2023/07/12 07:57:32;;;;;;;11.32;10.93;;;27.10;99.90;;;;;;5012479;28;20205;-66
2023/07/12 08:00:03;;;;;;;10.82;10.43;;;27.10;99.90;;;;;;5011212;28;20206;-67
2023/07/12 08:02:30;;;;;;;9.88;9.57;;;27.20;99.90;;;;;;5011093;28;20224;-68
2023/07/12 08:04:58;;;;;;;10.60;10.20;;;27.40;99.90;;;;;;5010475;28;20213;-67
2023/07/12 08:07:24;;;;;;;9.50;9.10;;;27.50;99.90;;;;;;5011741;28;20677;-71
2023/07/12 08:09:51;;;;;;;9.50;9.20;;;27.60;99.90;;;;;;5010106;28;20206;-67
2023/07/12 08:12:20;;;;;;;10.18;9.77;;;27.70;99.90;;;;;;5010690;28;20209;-67
2023/07/12 08:14:46;;;;;;;12.23;11.75;;;27.80;99.90;;;;;;5008965;28;20574;-67
2023/07/12 08:17:13;;;;;;;9.30;9.00;;;27.70;99.90;;;;;;5012158;28;20227;-69
2023/07/12 08:19:40;;;;;;;9.10;8.80;;;27.60;99.90;;;;;;5013376;28;20217;-66
2023/07/12 08:22:07;;;;;;;9.25;8.95;;;27.40;99.90;;;;;;5015932;28;20205;-67
2023/07/12 08:24:34;;;;;;;10.15;9.75;;;27.40;99.90;;;;;;5016118;28;20229;-67
2023/07/12 08:27:01;;;;;;;11.95;11.55;;;27.50;99.90;;;;;;5016012;28;20231;-67
2023/07/12 08:29:29;;;;;;;12.00;11.60;;;27.60;99.90;;;;;;5012099;28;20221;-67
2023/07/12 08:31:56;;;;;;;13.00;12.50;;;27.90;99.90;;;;;;5012248;28;20215;-66
2023/07/12 08:34:23;;;;;;;10.68;10.27;;;28.00;99.90;;;;;;5013047;28;20203;-66
2023/07/12 08:36:49;;;;;;;12.48;12.00;;;28.00;99.90;;;;;;5012100;28;20244;-69
2023/07/12 08:39:16;;;;;;;13.52;12.95;;;28.00;99.90;;;;;;5011652;28;20216;-67
2023/07/12 08:41:43;;;;;;;12.20;11.80;;;28.20;99.90;;;;;;5011882;28;20205;-65
2023/07/12 08:44:14;;;;;;;12.10;11.70;;;28.40;99.90;;;;;;5012019;28;20719;-67
2023/07/12 08:46:47;;;;;;;11.75;11.35;;;28.40;99.90;;;;;;5010881;28;20295;-68
2023/07/12 08:49:17;;;;;;;14.88;14.27;;;28.50;99.90;;;;;;5008333;28;20213;-67
2023/07/12 08:51:45;;;;;;;15.50;14.90;;;28.30;99.90;;;;;;5011385;28;20201;-67
2023/07/12 08:54:22;;;;;;;11.77;11.38;;;28.10;99.90;;;;;;5010555;28;20207;-67
2023/07/12 08:56:50;;;;;;;11.80;11.30;;;28.00;99.90;;;;;;5011102;28;20236;-66
2023/07/12 08:59:19;;;;;;;13.07;12.55;;;28.00;99.90;;;;;;5010395;28;20209;-67
2023/07/12 09:01:51;;;;;;;11.73;11.32;;;28.00;99.90;;;;;;5011155;28;20217;-67
2023/07/12 09:04:25;;;;;;;11.25;10.85;;;28.00;99.90;;;;;;5011173;28;20221;-66
2023/07/12 09:06:55;;;;;;;11.48;10.98;;;27.90;99.90;;;;;;5012246;28;20224;-66
2023/07/12 09:09:22;;;;;;;13.43;12.93;;;27.80;99.90;;;;;;5013290;28;20637;-66
2023/07/12 09:11:49;;;;;;;12.73;12.23;;;27.80;99.90;;;;;;5011510;28;20201;-66
2023/07/12 09:14:17;;;;;;;11.68;11.27;;;28.10;99.90;;;;;;5010607;28;20208;-66
2023/07/12 09:16:48;;;;;;;11.73;11.23;;;28.30;99.90;;;;;;5011622;28;20825;-66
2023/07/12 09:19:19;;;;;;;13.85;13.25;;;28.40;99.90;;;;;;5010282;28;20209;-67
2023/07/12 09:21:51;;;;;;;11.52;11.13;;;28.30;99.90;;;;;;5011193;28;20189;-68
2023/07/12 09:24:23;;;;;;;11.82;11.43;;;28.40;99.90;;;;;;5010175;28;20702;-66
2023/07/12 09:26:50;;;;;;;11.57;11.18;;;28.70;99.90;;;;;;5010277;28;20225;-66
2023/07/12 09:29:22;;;;;;;13.85;13.25;;;28.90;99.90;;;;;;5009969;28;20602;-67
2023/07/12 09:31:51;;;;;;;11.30;10.80;;;29.10;99.90;;;;;;5012843;28;20197;-65
2023/07/12 09:34:22;;;;;;;11.93;11.52;;;29.20;99.90;;;;;;5011025;28;20203;-66
2023/07/12 09:36:56;;;;;;;12.52;12.07;;;29.20;99.90;;;;;;5010946;28;20767;-68
2023/07/12 09:39:23;;;;;;;12.00;11.57;;;29.30;99.90;;;;;;5009520;28;20209;-65
2023/07/12 09:41:54;;;;;;;13.10;12.60;;;29.20;99.90;;;;;;5010506;28;20213;-67
2023/07/12 09:44:21;;;;;;;12.68;12.18;;;29.30;99.90;;;;;;5010052;28;20780;-68
2023/07/12 09:46:54;;;;;;;11.93;11.52;;;29.30;99.90;;;;;;5008867;28;20232;-68
2023/07/12 09:49:24;;;;;;;13.57;13.07;;;29.20;99.90;;;;;;5009852;28;20197;-68
2023/07/12 09:52:03;;;;;;;11.38;10.98;;;29.00;99.90;;;;;;5009949;28;20874;-68
2023/07/12 09:54:41;;;;;;;13.13;12.63;;;29.00;99.90;;;;;;5009447;28;20260;-67
2023/07/12 09:57:15;;;;;;;11.60;11.20;;;28.90;99.90;;;;;;5008326;28;20201;-67
2023/07/12 09:59:51;;;;;;;12.18;11.77;;;29.00;99.90;;;;;;5009314;28;20224;-68
2023/07/12 10:02:31;;;;;;;10.38;9.98;;;29.00;99.90;;;;;;5009780;28;20232;-68
2023/07/12 10:05:02;;;;;;;9.70;9.30;;;29.40;99.90;;;;;;5010047;28;20232;-68
2023/07/12 10:07:38;;;;;;;10.75;10.35;;;29.20;99.90;;;;;;5010171;28;20185;-68
2023/07/12 10:10:18;;;;;;;15.82;15.15;;;29.30;99.90;;;;;;5008865;28;20811;-67
2023/07/12 10:12:52;;;;;;;11.90;11.40;;;29.40;99.90;;;;;;5009745;28;20209;-67
2023/07/12 10:15:19;;;;;;;10.35;9.95;;;29.60;99.90;;;;;;5009549;28;20233;-67
2023/07/12 10:17:47;;;;;;;10.38;9.98;;;29.70;99.90;;;;;;5008902;28;20215;-67
2023/07/12 10:20:18;;;;;;;10.05;9.65;;;29.50;99.90;;;;;;5009328;28;20296;-67
2023/07/12 10:22:46;;;;;;;9.85;9.45;;;29.60;99.90;;;;;;5009957;28;20636;-67
2023/07/12 10:25:34;;;;;;;9.77;9.38;;;29.70;99.90;;;;;;5009562;28;20232;-68
2023/07/12 10:28:06;;;;;;;9.13;8.73;;;29.60;99.90;;;;;;5009884;28;20595;-67
2023/07/12 10:30:34;;;;;;;10.82;10.43;;;29.30;99.90;;;;;;5008331;28;20213;-66
2023/07/12 10:33:11;;;;;;;23.88;22.45;;;29.10;99.90;;;;;;5009365;28;20231;-67
2023/07/12 10:35:43;;;;;;;9.32;8.93;;;29.00;99.90;;;;;;5009731;28;20251;-65
2023/07/12 10:38:15;;;;;;;9.45;9.05;;;29.10;99.90;;;;;;5009745;28;20189;-66
2023/07/12 10:40:49;;;;;;;9.63;9.23;;;29.30;99.90;;;;;;5008866;28;20209;-65
2023/07/12 10:43:20;;;;;;;9.32;8.93;;;29.40;99.90;;;;;;5009887;28;20190;-65
2023/07/12 10:45:50;;;;;;;9.80;9.40;;;29.50;99.90;;;;;;5009844;28;20229;-68
2023/07/12 10:48:24;;;;;;;10.10;9.70;;;29.50;99.90;;;;;;5010730;28;20204;-68
2023/07/12 10:50:55;;;;;;;15.23;14.48;;;29.80;99.90;;;;;;5012550;28;20212;-68
2023/07/12 10:53:24;;;;;;;8.70;8.40;;;29.50;99.90;;;;;;5013290;28;20567;-67
2023/07/12 10:56:12;;;;;;;9.00;8.70;;;29.20;99.90;;;;;;5013197;28;20229;-68
2023/07/12 10:58:55;;;;;;;18.55;17.67;;;29.50;99.90;;;;;;5013127;28;20204;-67
2023/07/12 11:01:48;;;;;;;10.27;9.88;;;29.60;99.90;;;;;;5012616;28;20290;-67
2023/07/12 11:04:24;;;;;;;9.52;9.13;;;29.40;99.90;;;;;;5013223;28;20209;-67
2023/07/12 11:07:00;;;;;;;10.30;9.90;;;29.50;99.90;;;;;;5013132;28;20260;-67
2023/07/12 11:09:48;;;;;;;10.10;9.70;;;29.60;99.90;;;;;;5013158;28;20219;-66
2023/07/12 11:12:19;;;;;;;10.50;10.10;;;29.70;99.90;;;;;;5013963;28;20216;-68
2023/07/12 11:14:50;;;;;;;24.17;22.90;;;29.80;99.90;;;;;;5013748;28;20189;-67
2023/07/12 11:17:21;;;;;;;9.35;8.95;;;30.10;99.90;;;;;;5013335;28;20243;-67
2023/07/12 11:20:06;;;;;;;14.18;13.52;;;30.30;99.90;;;;;;5012008;28;20217;-68
2023/07/12 11:23:00;;;;;;;9.15;8.75;;;30.00;99.90;;;;;;5013749;28;20186;-68
2023/07/12 11:25:32;;;;;;;9.85;9.45;;;29.80;99.90;;;;;;5015003;28;20239;-67
2023/07/12 11:28:02;;;;;;;10.90;10.40;;;30.10;99.90;;;;;;5014100;28;20650;-68
2023/07/12 11:30:41;;;;;;;9.32;8.93;;;30.20;99.90;;;;;;5013169;28;20280;-68
2023/07/12 11:33:28;;;;;;;12.13;11.52;;;30.20;99.90;;;;;;5013522;28;20208;-69
2023/07/12 11:36:01;;;;;;;8.68;8.27;;;30.30;99.90;;;;;;5014128;28;20328;-67
2023/07/12 11:38:29;;;;;;;9.20;8.80;;;30.30;99.90;;;;;;5013312;28;20216;-67
2023/07/12 11:40:59;;;;;;;10.38;9.98;;;30.50;99.90;;;;;;5011834;28;20297;-69
2023/07/12 11:43:38;;;;;;;9.00;8.50;;;30.60;99.90;;;;;;5012062;28;20207;-69
2023/07/12 11:46:13;;;;;;;9.10;8.70;;;30.50;99.90;;;;;;5012179;28;20550;-67
2023/07/12 11:48:43;;;;;;;9.20;8.90;;;30.40;99.90;;;;;;5010531;28;20213;-67
2023/07/12 11:51:19;;;;;;;9.40;9.00;;;30.50;99.90;;;;;;5012290;28;20206;-66
2023/07/12 11:53:54;;;;;;;8.80;8.50;;;30.50;99.90;;;;;;5012465;28;20208;-68
2023/07/12 11:56:20;;;;;;;8.98;8.68;;;30.50;99.90;;;;;;5024911;28;20224;-67
2023/07/12 11:58:49;;;;;;;9.23;8.82;;;30.50;99.90;;;;;;5015541;28;20209;-69
2023/07/12 12:01:19;;;;;;;8.95;8.55;;;30.50;99.90;;;;;;5011458;28;20571;-68
2023/07/12 12:03:49;;;;;;;11.10;10.63;;;30.50;99.90;;;;;;5011889;28;20253;-69
2023/07/12 12:06:17;;;;;;;9.32;8.93;;;30.40;99.90;;;;;;5012269;28;20312;-68
2023/07/12 12:08:48;;;;;;;9.98;9.57;;;30.20;99.90;;;;;;5012111;28;20256;-69
2023/07/12 12:11:15;;;;;;;9.60;9.20;;;30.40;99.90;;;;;;5011439;28;20305;-69
2023/07/12 12:13:46;;;;;;;9.15;8.75;;;30.70;99.90;;;;;;5011736;28;20210;-69
2023/07/12 12:16:21;;;;;;;10.75;10.35;;;30.80;99.90;;;;;;5027850;22;20689;-68
2023/07/12 12:18:54;;;;;;;11.00;10.55;;;31.00;99.90;;;;;;5025611;28;20932;-66
2023/07/12 12:21:22;;;;;;;8.20;7.90;;;31.10;99.90;;;;;;5031176;28;20682;-70
2023/07/12 12:23:52;;;;;;;8.23;7.93;;;30.80;99.90;;;;;;5032434;28;20205;-69
2023/07/12 12:26:21;;;;;;;8.70;8.40;;;30.40;99.90;;;;;;5032498;28;20229;-69
2023/07/12 12:28:53;;;;;;;8.23;7.93;;;30.10;99.90;;;;;;5032857;28;20268;-69
2023/07/12 12:31:23;;;;;;;9.30;8.98;;;30.00;99.90;;;;;;5031314;28;20761;-69
2023/07/12 12:33:51;;;;;;;8.68;8.38;;;29.80;99.90;;;;;;5031904;28;20650;-68
2023/07/12 12:36:21;;;;;;;9.43;9.13;;;29.70;99.90;;;;;;5032789;28;20670;-68
2023/07/12 12:38:58;;;;;;;9.10;8.80;;;29.60;99.90;;;;;;5039822;28;20255;-68
2023/07/12 12:41:32;;;;;;;10.25;9.85;;;29.50;99.90;;;;;;5029484;28;20601;-68
2023/07/12 12:44:00;;;;;;;22.08;21.00;;;29.80;99.90;;;;;;5048423;28;20219;-68
2023/07/12 12:46:28;;;;;;;10.63;10.13;;;30.10;99.90;;;;;;5043827;28;20251;-70
2023/07/12 12:48:55;;;;;;;16.10;15.38;;;30.20;99.90;;;;;;5027734;28;20635;-68
2023/07/12 12:51:23;;;;;;;9.13;8.80;;;30.10;99.90;;;;;;5028122;28;20690;-67